Time;durP1;ratioP1;P1;durP2;ratioP2;P2;SDS_P1;SDS_P2;PMS_P1;PMS_P2;Temp;Humidity;BMP_temperature;BMP_pressure;BME280_temperature;BME280_humidity;BME280_pressure;Samples;Min_cycle;Max_cycle;Signal;HPM_P1;HPM_P2
2020/12/14 00:02:07;;;;;;;4.93;4.33;;;3.50;99.90;;;;;;5082874;28;20418;-74
2020/12/14 00:04:32;;;;;;;4.50;4.10;;;3.50;99.90;;;;;;5082136;28;20208;-74
2020/12/14 00:06:58;;;;;;;3.93;3.57;;;3.40;99.90;;;;;;5083727;28;20503;-74
2020/12/14 00:09:23;;;;;;;6.33;4.50;;;3.30;99.90;;;;;;5081380;28;20176;-74
2020/12/14 00:11:50;;;;;;;6.70;5.00;;;3.20;99.90;;;;;;5085058;28;20250;-74
2020/12/14 00:14:16;;;;;;;4.53;4.10;;;3.20;99.90;;;;;;5080739;28;20548;-74
2020/12/14 00:16:42;;;;;;;4.87;4.47;;;3.10;99.90;;;;;;5083827;28;20502;-74
2020/12/14 00:19:07;;;;;;;5.50;5.00;;;3.10;99.90;;;;;;5082819;28;20208;-74
2020/12/14 00:21:33;;;;;;;6.33;5.20;;;3.00;99.90;;;;;;5082846;28;20221;-74
2020/12/14 00:23:58;;;;;;;5.00;4.50;;;2.90;99.90;;;;;;5083723;28;20178;-74
2020/12/14 00:26:24;;;;;;;5.10;4.60;;;2.90;99.90;;;;;;5081356;28;20237;-75
2020/12/14 00:28:49;;;;;;;7.23;5.10;;;2.90;99.90;;;;;;5084851;28;20190;-74
2020/12/14 00:31:18;;;;;;;6.63;5.30;;;2.90;99.90;;;;;;5081316;28;20571;-74
2020/12/14 00:33:44;;;;;;;7.10;5.60;;;2.90;99.90;;;;;;5084312;28;20192;-74
2020/12/14 00:36:10;;;;;;;4.70;4.30;;;2.90;99.90;;;;;;5081820;28;21631;-74
2020/12/14 00:38:37;;;;;;;4.77;4.27;;;2.80;99.90;;;;;;5083068;28;21031;-74
2020/12/14 00:41:03;;;;;;;5.63;4.90;;;2.80;99.90;;;;;;5082795;28;20783;-74
2020/12/14 00:43:29;;;;;;;5.27;4.40;;;2.70;99.90;;;;;;5081937;28;20427;-74
2020/12/14 00:45:54;;;;;;;11.23;5.07;;;2.70;99.90;;;;;;5083899;28;20412;-74
2020/12/14 00:48:20;;;;;;;5.53;5.03;;;2.60;99.90;;;;;;5080773;28;20574;-74
2020/12/14 00:50:46;;;;;;;6.00;5.33;;;2.60;99.90;;;;;;5084577;28;20285;-74
2020/12/14 00:53:12;;;;;;;6.13;5.60;;;2.60;99.90;;;;;;5079900;28;20272;-74
2020/12/14 00:55:38;;;;;;;8.63;4.70;;;2.60;99.90;;;;;;5082868;28;20186;-74
2020/12/14 00:58:03;;;;;;;6.23;5.10;;;2.60;99.90;;;;;;5082160;28;20210;-74
2020/12/14 01:00:29;;;;;;;7.80;5.93;;;2.50;99.90;;;;;;5081646;28;20448;-74
2020/12/14 01:02:54;;;;;;;6.67;5.50;;;2.50;99.90;;;;;;5083441;28;20685;-74
2020/12/14 01:05:20;;;;;;;5.43;4.93;;;2.50;99.90;;;;;;5080371;28;20249;-75
2020/12/14 01:07:45;;;;;;;5.47;4.53;;;2.40;99.90;;;;;;5083923;28;20201;-74
2020/12/14 01:10:11;;;;;;;5.37;4.87;;;2.40;99.90;;;;;;5081489;28;20198;-75
2020/12/14 01:12:36;;;;;;;6.70;5.20;;;2.30;99.90;;;;;;5081904;28;20202;-74
2020/12/14 01:15:03;;;;;;;4.80;4.40;;;2.30;99.90;;;;;;5081211;28;20242;-73
2020/12/14 01:17:29;;;;;;;7.37;5.47;;;2.30;99.90;;;;;;5081302;28;20188;-74
2020/12/14 01:19:54;;;;;;;4.97;4.57;;;2.30;99.90;;;;;;5083153;28;20848;-74
2020/12/14 01:22:20;;;;;;;5.67;5.10;;;2.20;99.90;;;;;;5080157;28;20185;-74
2020/12/14 01:24:45;;;;;;;7.70;5.67;;;2.20;99.90;;;;;;5080085;28;20242;-74
2020/12/14 01:27:11;;;;;;;6.13;5.53;;;2.20;99.90;;;;;;5082574;28;20200;-74
2020/12/14 01:29:36;;;;;;;6.17;5.57;;;2.20;99.90;;;;;;5081033;28;20600;-74
2020/12/14 01:32:02;;;;;;;6.57;5.03;;;2.20;99.90;;;;;;5081542;28;20623;-74
2020/12/14 01:34:27;;;;;;;7.30;5.67;;;2.10;99.90;;;;;;5082452;28;20193;-74
2020/12/14 01:36:53;;;;;;;7.30;5.77;;;2.20;99.90;;;;;;5079920;28;20677;-74
2020/12/14 01:39:18;;;;;;;9.43;5.77;;;2.20;99.90;;;;;;5083703;28;20180;-74
2020/12/14 01:41:44;;;;;;;6.73;5.90;;;2.20;99.90;;;;;;5079721;28;20205;-74
2020/12/14 01:44:09;;;;;;;5.67;4.80;;;2.30;99.90;;;;;;5082424;28;20210;-74
2020/12/14 01:46:43;;;;;;;5.37;4.87;;;2.40;99.90;;;;;;5080701;28;20236;-75
2020/12/14 01:49:09;;;;;;;6.30;5.30;;;2.40;99.90;;;;;;5082300;28;20247;-75
2020/12/14 01:51:36;;;;;;;4.93;4.43;;;2.50;99.90;;;;;;5081025;28;20439;-75
2020/12/14 01:54:34;;;;;;;6.57;4.80;;;2.50;99.90;;;;;;5081127;28;20668;-75
2020/12/14 01:57:03;;;;;;;7.40;5.13;;;2.50;99.90;;;;;;5080341;28;20432;-75
2020/12/14 01:59:29;;;;;;;8.60;5.13;;;2.50;99.90;;;;;;5081598;28;20451;-75
2020/12/14 02:01:54;;;;;;;7.10;5.00;;;2.50;99.90;;;;;;5079984;28;20480;-75
2020/12/14 02:04:20;;;;;;;6.37;4.70;;;2.50;99.90;;;;;;5083110;28;20224;-75
2020/12/14 02:06:45;;;;;;;5.60;4.30;;;2.60;99.90;;;;;;5078905;28;20589;-75
2020/12/14 02:09:11;;;;;;;7.37;4.63;;;2.60;99.90;;;;;;5082093;28;20691;-75
2020/12/14 02:11:37;;;;;;;5.70;5.07;;;2.50;99.90;;;;;;5080227;28;20227;-75
2020/12/14 02:14:02;;;;;;;6.40;5.50;;;2.50;99.90;;;;;;5081052;28;20182;-75
2020/12/14 02:16:28;;;;;;;8.00;5.43;;;2.50;99.90;;;;;;5081394;28;20211;-75
2020/12/14 02:18:53;;;;;;;6.30;5.40;;;2.50;99.90;;;;;;5079978;28;20210;-75
2020/12/14 02:21:19;;;;;;;8.87;5.50;;;2.50;99.90;;;;;;5082762;28;20208;-75
2020/12/14 02:23:44;;;;;;;8.00;5.03;;;2.50;99.90;;;;;;5079520;28;20547;-75
2020/12/14 02:26:10;;;;;;;6.67;5.20;;;2.60;99.90;;;;;;5081748;28;20186;-75
2020/12/14 02:28:37;;;;;;;5.40;4.80;;;2.60;99.90;;;;;;5080493;28;20188;-75
2020/12/14 02:31:03;;;;;;;6.93;5.03;;;2.60;99.90;;;;;;5079455;28;20197;-75
2020/12/14 02:33:28;;;;;;;5.80;4.83;;;2.70;99.90;;;;;;5081513;28;20398;-75
2020/12/14 02:35:54;;;;;;;8.13;5.57;;;2.70;99.90;;;;;;5079679;28;20174;-75
2020/12/14 02:38:21;;;;;;;6.23;4.33;;;2.70;99.90;;;;;;5086926;28;20195;-75
2020/12/14 02:40:46;;;;;;;7.57;5.70;;;2.70;99.90;;;;;;5083085;28;20442;-74
2020/12/14 02:43:12;;;;;;;4.70;4.03;;;2.70;99.90;;;;;;5085364;28;20415;-75
2020/12/14 02:45:37;;;;;;;7.60;4.20;;;2.70;99.90;;;;;;5083949;28;20277;-75
2020/12/14 02:48:04;;;;;;;5.57;4.47;;;2.70;99.90;;;;;;5082878;28;20240;-74
2020/12/14 02:50:29;;;;;;;5.63;5.13;;;2.70;99.90;;;;;;5086962;28;20765;-75
2020/12/14 02:52:56;;;;;;;5.03;4.63;;;2.70;99.90;;;;;;5084125;28;20526;-75
2020/12/14 02:55:22;;;;;;;5.67;4.70;;;2.70;99.90;;;;;;5085344;28;20184;-74
2020/12/14 02:57:47;;;;;;;6.00;4.53;;;2.60;99.90;;;;;;5083772;28;20439;-74
2020/12/14 03:00:13;;;;;;;5.30;4.80;;;2.50;99.90;;;;;;5086816;28;20944;-74
2020/12/14 03:02:38;;;;;;;6.57;4.90;;;2.50;99.90;;;;;;5090799;28;20568;-75
2020/12/14 03:05:04;;;;;;;4.43;4.03;;;2.50;99.90;;;;;;5082649;28;20623;-75
2020/12/14 03:07:29;;;;;;;5.33;4.63;;;2.50;99.90;;;;;;5084661;28;20213;-74
2020/12/14 03:09:55;;;;;;;7.00;4.77;;;2.50;99.90;;;;;;5082525;28;20213;-74
2020/12/14 03:12:20;;;;;;;6.70;4.90;;;2.50;99.90;;;;;;5084378;28;20181;-74
2020/12/14 03:14:46;;;;;;;5.57;5.07;;;2.60;99.90;;;;;;5083879;28;20168;-75
2020/12/14 03:17:11;;;;;;;6.37;4.77;;;2.60;99.90;;;;;;5085523;28;20189;-74
2020/12/14 03:19:37;;;;;;;5.33;4.77;;;2.70;99.90;;;;;;5084929;28;20189;-74
2020/12/14 03:22:02;;;;;;;7.10;4.80;;;2.60;99.90;;;;;;5083933;28;20205;-74
2020/12/14 03:24:28;;;;;;;8.00;5.43;;;2.60;99.90;;;;;;5083606;28;20178;-74
2020/12/14 03:26:53;;;;;;;6.07;4.83;;;2.60;99.90;;;;;;5084296;28;20204;-74
2020/12/14 03:29:19;;;;;;;6.67;5.83;;;2.60;99.90;;;;;;5086184;28;20177;-74
2020/12/14 03:31:44;;;;;;;4.63;4.23;;;2.50;99.90;;;;;;5083159;28;20202;-74
2020/12/14 03:34:10;;;;;;;4.57;3.83;;;2.50;99.90;;;;;;5083204;28;20183;-74
2020/12/14 03:36:36;;;;;;;5.87;4.60;;;2.50;99.90;;;;;;5083806;28;20186;-74
2020/12/14 03:39:02;;;;;;;6.13;5.00;;;2.40;99.90;;;;;;5084547;28;20193;-74
2020/12/14 03:41:28;;;;;;;5.23;4.70;;;2.30;99.90;;;;;;5084553;28;20206;-74
2020/12/14 03:43:53;;;;;;;5.60;4.17;;;2.30;99.90;;;;;;5083613;28;20963;-74
2020/12/14 03:46:23;;;;;;;4.50;4.10;;;2.20;99.90;;;;;;5079138;28;20186;-75
2020/12/14 03:48:53;;;;;;;4.90;4.40;;;2.20;99.90;;;;;;5082128;28;20176;-75
2020/12/14 03:51:19;;;;;;;4.60;3.90;;;2.20;99.90;;;;;;5084508;28;20437;-75
2020/12/14 03:53:44;;;;;;;6.40;4.30;;;2.10;99.90;;;;;;5083798;28;20439;-74
2020/12/14 03:56:10;;;;;;;6.97;4.40;;;2.00;99.90;;;;;;5082308;28;20854;-75
2020/12/14 03:58:35;;;;;;;3.90;3.53;;;2.00;99.90;;;;;;5083871;28;20682;-75
2020/12/14 04:01:01;;;;;;;3.83;3.33;;;2.00;99.90;;;;;;5080807;28;20223;-75
2020/12/14 04:03:27;;;;;;;7.27;4.80;;;1.90;99.90;;;;;;5081103;28;20260;-75
2020/12/14 04:05:52;;;;;;;7.20;5.43;;;1.90;99.90;;;;;;5082670;28;20181;-74
2020/12/14 04:08:18;;;;;;;4.73;4.33;;;1.90;99.90;;;;;;5085104;28;20228;-75
2020/12/14 04:10:44;;;;;;;4.50;4.10;;;1.80;99.90;;;;;;5081054;28;20205;-75
2020/12/14 04:13:09;;;;;;;4.47;4.00;;;1.80;99.90;;;;;;5084137;28;20257;-75
2020/12/14 04:15:35;;;;;;;5.30;4.40;;;1.80;99.90;;;;;;5085793;28;20180;-75
2020/12/14 04:18:00;;;;;;;4.07;3.73;;;1.70;99.90;;;;;;5083713;28;20188;-75
2020/12/14 04:20:26;;;;;;;5.00;4.33;;;1.70;99.90;;;;;;5082190;28;20210;-75
2020/12/14 04:22:51;;;;;;;4.43;4.03;;;1.60;99.90;;;;;;5081449;28;20652;-74
2020/12/14 04:25:17;;;;;;;7.00;5.17;;;1.60;99.90;;;;;;5083546;28;20304;-74
2020/12/14 04:27:43;;;;;;;5.17;4.40;;;1.50;99.90;;;;;;5079105;28;20206;-75
2020/12/14 04:30:10;;;;;;;5.00;4.53;;;1.40;99.90;;;;;;5083693;28;20518;-75
2020/12/14 04:32:36;;;;;;;5.17;4.63;;;1.40;99.90;;;;;;5081966;28;20435;-75
2020/12/14 04:35:02;;;;;;;4.90;4.37;;;1.40;99.90;;;;;;5081982;28;20423;-75
2020/12/14 04:37:28;;;;;;;4.23;3.93;;;1.40;99.90;;;;;;5080454;28;20189;-74
2020/12/14 04:39:53;;;;;;;4.73;3.97;;;1.30;99.90;;;;;;5083200;28;20439;-75
2020/12/14 04:42:19;;;;;;;4.20;3.80;;;1.30;99.90;;;;;;5083100;28;20185;-75
2020/12/14 04:44:45;;;;;;;4.50;4.10;;;1.30;99.90;;;;;;5081183;28;20185;-75
2020/12/14 04:47:12;;;;;;;6.27;5.33;;;1.30;99.90;;;;;;5081830;28;20557;-74
2020/12/14 04:49:39;;;;;;;5.03;4.33;;;1.20;99.90;;;;;;5084512;28;20187;-75
2020/12/14 04:52:05;;;;;;;5.17;4.67;;;1.10;99.90;;;;;;5083936;28;20450;-75
2020/12/14 04:54:32;;;;;;;7.93;4.47;;;1.10;99.90;;;;;;5083399;28;20545;-74
2020/12/14 04:57:07;;;;;;;4.47;3.60;;;1.00;99.90;;;;;;5081353;28;20907;-74
2020/12/14 04:59:33;;;;;;;5.67;4.20;;;1.00;99.90;;;;;;5082536;28;20532;-74
2020/12/14 05:02:11;;;;;;;6.20;5.07;;;1.00;99.90;;;;;;5084838;28;20532;-74
2020/12/14 05:04:39;;;;;;;6.13;4.97;;;0.90;99.90;;;;;;5083375;28;20176;-74
2020/12/14 05:07:06;;;;;;;6.33;4.67;;;0.90;99.90;;;;;;5080839;28;20438;-74
2020/12/14 05:09:32;;;;;;;10.67;5.53;;;0.90;99.90;;;;;;5079734;28;20473;-74
2020/12/14 05:11:58;;;;;;;5.07;4.40;;;0.90;99.90;;;;;;5083115;28;20451;-74
2020/12/14 05:14:29;;;;;;;5.40;4.13;;;0.90;99.90;;;;;;5080649;28;20402;-74
2020/12/14 05:16:54;;;;;;;5.57;5.17;;;0.90;99.90;;;;;;5086281;28;20442;-74
2020/12/14 05:19:28;;;;;;;8.90;5.77;;;0.90;99.90;;;;;;5080340;28;20786;-74
2020/12/14 05:22:01;;;;;;;14.13;5.10;;;0.90;99.90;;;;;;5086969;28;20290;-74
2020/12/14 05:24:30;;;;;;;6.40;4.10;;;0.90;99.90;;;;;;5081581;28;20461;-74
2020/12/14 05:26:58;;;;;;;5.83;3.97;;;0.80;99.90;;;;;;5080911;28;20470;-74
2020/12/14 05:29:28;;;;;;;8.73;5.23;;;0.80;99.90;;;;;;5083224;28;20450;-74
2020/12/14 05:32:09;;;;;;;6.90;5.17;;;0.80;99.90;;;;;;5080246;28;20566;-74
2020/12/14 05:34:39;;;;;;;5.73;4.20;;;0.80;99.90;;;;;;5081685;28;20987;-74
2020/12/14 05:37:12;;;;;;;8.47;5.70;;;0.80;99.90;;;;;;5081034;28;20443;-74
2020/12/14 05:39:39;;;;;;;7.80;5.77;;;0.80;99.90;;;;;;5082163;28;20415;-74
2020/12/14 05:42:14;;;;;;;10.53;5.20;;;0.80;99.90;;;;;;5081371;28;20409;-75
2020/12/14 05:44:41;;;;;;;6.30;5.20;;;0.80;99.90;;;;;;5082033;28;20437;-74
2020/12/14 05:47:27;;;;;;;8.00;5.47;;;0.70;99.90;;;;;;5083535;28;20587;-74
2020/12/14 05:49:53;;;;;;;9.33;5.40;;;0.70;99.90;;;;;;5080014;28;20431;-74
2020/12/14 05:52:20;;;;;;;7.67;4.93;;;0.70;99.90;;;;;;5083909;28;20405;-74
2020/12/14 05:54:51;;;;;;;5.80;4.70;;;0.70;99.90;;;;;;5080394;28;20426;-75
2020/12/14 05:57:35;;;;;;;6.23;4.40;;;0.70;99.90;;;;;;5079432;28;20386;-71
2020/12/14 06:00:08;;;;;;;7.90;4.83;;;0.70;99.90;;;;;;5080316;28;20783;-72
2020/12/14 06:02:35;;;;;;;8.33;4.87;;;0.70;99.90;;;;;;5082059;28;20450;-71
2020/12/14 06:05:04;;;;;;;5.73;4.27;;;0.70;99.90;;;;;;5079396;28;20454;-72
2020/12/14 06:07:31;;;;;;;7.60;4.70;;;0.70;99.90;;;;;;5081072;28;20833;-71
2020/12/14 06:10:11;;;;;;;4.90;4.07;;;0.70;99.90;;;;;;5081427;28;20427;-71
2020/12/14 06:12:41;;;;;;;4.80;4.13;;;0.80;99.90;;;;;;5080380;28;20956;-71
2020/12/14 06:15:09;;;;;;;5.27;4.63;;;0.80;99.90;;;;;;5080772;28;20423;-71
2020/12/14 06:17:36;;;;;;;5.13;4.60;;;0.80;99.90;;;;;;5079051;28;20951;-71
2020/12/14 06:20:17;;;;;;;8.40;4.57;;;0.80;99.90;;;;;;5081234;28;20391;-71
2020/12/14 06:22:50;;;;;;;8.17;4.40;;;0.80;99.90;;;;;;5080957;28;20409;-71
2020/12/14 06:25:16;;;;;;;9.37;3.63;;;0.70;99.90;;;;;;5079414;28;20395;-71
2020/12/14 06:27:42;;;;;;;12.73;5.10;;;0.70;99.90;;;;;;5080460;28;20469;-71
2020/12/14 06:30:29;;;;;;;7.60;5.10;;;0.70;99.90;;;;;;5080376;28;20419;-72
2020/12/14 06:33:09;;;;;;;8.13;4.77;;;0.80;99.90;;;;;;5080050;28;20436;-72
2020/12/14 06:35:41;;;;;;;5.53;4.73;;;0.80;99.90;;;;;;5086465;28;20425;-72
2020/12/14 06:38:07;;;;;;;6.60;4.97;;;0.70;99.90;;;;;;5083302;28;20804;-74
2020/12/14 06:40:56;;;;;;;7.93;5.70;;;0.70;99.90;;;;;;5080839;28;20433;-75
2020/12/14 06:43:29;;;;;;;8.13;5.47;;;0.70;99.90;;;;;;5081636;28;20523;-74
2020/12/14 06:45:56;;;;;;;7.87;5.70;;;0.60;99.90;;;;;;5074671;28;20433;-72
2020/12/14 06:48:33;;;;;;;10.60;6.70;;;0.60;99.90;;;;;;5085323;28;20465;-72
2020/12/14 06:50:59;;;;;;;7.63;6.23;;;0.70;99.90;;;;;;5086661;28;20996;-75
2020/12/14 06:53:38;;;;;;;9.33;6.47;;;0.70;99.90;;;;;;5086041;28;20425;-74
2020/12/14 06:56:04;;;;;;;9.27;6.33;;;0.80;99.90;;;;;;5084050;28;20560;-75
2020/12/14 06:58:35;;;;;;;8.40;6.07;;;0.80;99.90;;;;;;5082388;28;20409;-75
2020/12/14 07:01:01;;;;;;;6.63;5.43;;;0.80;99.90;;;;;;5080285;28;20576;-75
2020/12/14 07:03:37;;;;;;;8.43;6.10;;;0.80;99.90;;;;;;5086072;28;20434;-75
2020/12/14 07:06:06;;;;;;;9.47;5.97;;;0.80;99.90;;;;;;5084415;28;20435;-75
2020/12/14 07:08:38;;;;;;;9.00;6.90;;;0.80;99.90;;;;;;5082136;28;20476;-75
2020/12/14 07:11:15;;;;;;;7.53;5.40;;;0.80;99.90;;;;;;5078797;28;20959;-75
2020/12/14 07:13:42;;;;;;;12.20;6.57;;;0.80;99.90;;;;;;5080952;28;20421;-75
2020/12/14 07:16:09;;;;;;;8.73;6.77;;;0.80;99.90;;;;;;5083236;28;20413;-74
2020/12/14 07:18:36;;;;;;;9.13;6.53;;;0.90;99.90;;;;;;5080422;28;20909;-76
2020/12/14 07:21:07;;;;;;;7.63;6.60;;;0.90;99.90;;;;;;5084863;28;20766;-74
2020/12/14 07:23:38;;;;;;;9.00;6.13;;;0.90;99.90;;;;;;5081687;28;20421;-72
2020/12/14 07:26:05;;;;;;;10.83;6.60;;;1.00;99.90;;;;;;5083994;28;20414;-72
2020/12/14 07:28:38;;;;;;;9.37;6.13;;;1.00;99.90;;;;;;5084260;28;20801;-72
2020/12/14 07:31:21;;;;;;;13.37;8.23;;;1.00;99.90;;;;;;5087378;28;20432;-72
2020/12/14 07:33:49;;;;;;;14.07;8.20;;;1.00;99.90;;;;;;5084620;28;20905;-72
2020/12/14 07:36:15;;;;;;;15.07;8.70;;;1.10;99.90;;;;;;5085274;28;20396;-72
2020/12/14 07:38:49;;;;;;;13.67;8.93;;;1.10;99.90;;;;;;5084197;28;20426;-71
2020/12/14 07:41:15;;;;;;;10.47;7.30;;;1.10;99.90;;;;;;5085333;28;20200;-72
2020/12/14 07:43:46;;;;;;;13.27;8.17;;;1.20;99.90;;;;;;5082823;28;20415;-73
2020/12/14 07:46:35;;;;;;;13.90;8.80;;;1.20;99.90;;;;;;5087715;28;20696;-72
2020/12/14 07:49:07;;;;;;;12.10;7.83;;;1.30;99.90;;;;;;5082135;28;20405;-72
2020/12/14 07:51:34;;;;;;;11.47;7.40;;;1.30;99.90;;;;;;5084430;28;20460;-74
2020/12/14 07:54:09;;;;;;;12.03;7.83;;;1.40;99.90;;;;;;5082711;28;20434;-74
2020/12/14 07:56:46;;;;;;;9.20;7.00;;;1.40;99.90;;;;;;5080309;28;20507;-73
2020/12/14 07:59:26;;;;;;;11.87;8.37;;;1.50;99.90;;;;;;5084013;28;20415;-72
2020/12/14 08:01:52;;;;;;;13.40;7.90;;;1.60;99.90;;;;;;5080678;28;20841;-73
2020/12/14 08:04:28;;;;;;;13.53;8.33;;;1.70;99.90;;;;;;5086776;28;20834;-74
2020/12/14 08:06:55;;;;;;;14.13;9.63;;;1.70;99.90;;;;;;5087706;28;20440;-73
2020/12/14 08:09:23;;;;;;;14.20;8.03;;;1.80;99.90;;;;;;5084123;28;20437;-73
2020/12/14 08:11:50;;;;;;;18.20;10.07;;;1.80;99.90;;;;;;5086226;28;20454;-72
2020/12/14 08:14:17;;;;;;;13.93;9.23;;;2.00;99.90;;;;;;5085584;28;20511;-72
2020/12/14 08:16:47;;;;;;;11.10;8.33;;;2.00;99.90;;;;;;5083835;28;20492;-72
2020/12/14 08:19:23;;;;;;;13.73;9.10;;;2.10;99.90;;;;;;5085256;28;20523;-73
2020/12/14 08:22:24;;;;;;;12.53;8.63;;;2.20;99.90;;;;;;5084892;28;20441;-72
2020/12/14 08:24:56;;;;;;;12.83;9.50;;;2.30;99.90;;;;;;5082564;28;20439;-71
2020/12/14 08:27:47;;;;;;;12.93;8.50;;;2.30;99.90;;;;;;5081162;28;20434;-72
2020/12/14 08:30:13;;;;;;;16.37;9.17;;;2.40;99.90;;;;;;5083582;28;20845;-73
2020/12/14 08:32:38;;;;;;;14.03;9.53;;;2.40;99.90;;;;;;5082304;28;20425;-72
2020/12/14 08:35:24;;;;;;;10.43;7.83;;;2.50;99.90;;;;;;5082652;28;20419;-73
2020/12/14 08:37:51;;;;;;;17.07;8.90;;;2.60;99.90;;;;;;5080817;28;20184;-72
2020/12/14 08:40:18;;;;;;;12.57;9.30;;;2.80;99.90;;;;;;5082020;28;20458;-72
2020/12/14 08:42:43;;;;;;;18.77;9.17;;;3.00;99.90;;;;;;5085699;28;20417;-72
2020/12/14 08:45:13;;;;;;;12.43;9.10;;;3.20;99.90;;;;;;5082513;28;20465;-72
2020/12/14 08:47:40;;;;;;;15.73;10.30;;;3.40;99.90;;;;;;5088784;28;20219;-73
2020/12/14 08:50:08;;;;;;;15.60;9.70;;;3.50;99.90;;;;;;5086598;28;20486;-72
2020/12/14 08:52:34;;;;;;;14.93;9.80;;;3.70;99.90;;;;;;5082965;28;20409;-73
2020/12/14 08:55:00;;;;;;;14.67;9.30;;;3.90;99.90;;;;;;5083736;28;20817;-73
2020/12/14 08:57:28;;;;;;;14.13;9.73;;;4.10;99.90;;;;;;5082908;28;20559;-73
2020/12/14 09:00:01;;;;;;;12.97;8.57;;;4.20;99.90;;;;;;5079558;28;20405;-73
2020/12/14 09:02:26;;;;;;;15.83;9.10;;;4.40;99.90;;;;;;5079842;28;20526;-72
2020/12/14 09:04:53;;;;;;;13.13;9.43;;;4.60;99.90;;;;;;5081819;28;20485;-72
2020/12/14 09:07:26;;;;;;;10.27;7.43;;;4.70;99.90;;;;;;5080267;28;20567;-73
2020/12/14 09:09:52;;;;;;;11.60;7.93;;;5.00;99.90;;;;;;5080677;28;20416;-73
2020/12/14 09:12:19;;;;;;;15.23;8.93;;;5.40;99.90;;;;;;5080418;28;20470;-73
2020/12/14 09:14:45;;;;;;;12.90;8.97;;;6.20;99.90;;;;;;5080571;28;20429;-73
2020/12/14 09:17:14;;;;;;;13.03;8.40;;;6.90;99.90;;;;;;5080465;28;20496;-73
2020/12/14 09:19:40;;;;;;;10.23;7.80;;;7.60;99.90;;;;;;5082358;28;20190;-73
2020/12/14 09:22:06;;;;;;;10.43;8.03;;;8.30;99.90;;;;;;5081703;28;20440;-73
2020/12/14 09:24:34;;;;;;;8.90;7.03;;;9.10;99.90;;;;;;5079330;28;20578;-73
2020/12/14 09:27:15;;;;;;;14.07;8.73;;;9.70;99.90;;;;;;5081958;28;20891;-73
2020/12/14 09:29:42;;;;;;;9.83;8.07;;;10.40;99.90;;;;;;5082095;28;20446;-71
2020/12/14 09:32:09;;;;;;;9.63;7.83;;;10.80;99.90;;;;;;5080242;28;20456;-72
2020/12/14 09:34:36;;;;;;;8.40;7.50;;;11.30;99.90;;;;;;5081995;28;20514;-74
2020/12/14 09:37:02;;;;;;;11.30;7.97;;;11.30;99.90;;;;;;5080276;28;20604;-74
2020/12/14 09:39:29;;;;;;;10.27;7.57;;;11.30;99.90;;;;;;5080567;28;20426;-72
2020/12/14 09:41:56;;;;;;;8.30;7.07;;;10.90;99.90;;;;;;5080250;28;20548;-73
2020/12/14 09:44:22;;;;;;;9.80;7.60;;;10.90;99.90;;;;;;5083162;28;20406;-74
2020/12/14 09:46:48;;;;;;;10.63;7.63;;;10.90;99.90;;;;;;5081818;28;20991;-73
2020/12/14 09:49:13;;;;;;;9.23;7.03;;;11.00;99.90;;;;;;5080954;28;20502;-73
2020/12/14 09:51:39;;;;;;;8.33;7.20;;;11.10;99.90;;;;;;5080239;28;20203;-73
2020/12/14 09:54:05;;;;;;;8.43;7.30;;;11.20;99.90;;;;;;5080215;28;20190;-73
2020/12/14 09:56:32;;;;;;;8.40;7.30;;;11.00;99.90;;;;;;5082047;28;20185;-73
2020/12/14 09:58:58;;;;;;;8.70;7.47;;;10.80;99.90;;;;;;5081918;28;20471;-73
2020/12/14 10:01:24;;;;;;;9.17;7.90;;;10.40;99.90;;;;;;5080511;28;20486;-72
2020/12/14 10:03:50;;;;;;;10.13;8.07;;;10.10;99.90;;;;;;5080370;28;20265;-73
2020/12/14 10:06:17;;;;;;;7.60;6.80;;;9.80;99.90;;;;;;5082518;28;20442;-72
2020/12/14 10:08:42;;;;;;;9.43;7.73;;;9.70;99.90;;;;;;5079480;28;20440;-72
2020/12/14 10:11:08;;;;;;;10.37;8.00;;;9.50;99.90;;;;;;5080172;28;20441;-73
2020/12/14 10:13:35;;;;;;;8.07;7.20;;;9.40;99.90;;;;;;5081794;28;20266;-72
2020/12/14 10:16:01;;;;;;;9.20;7.07;;;9.10;99.90;;;;;;5080250;28;20497;-73
2020/12/14 10:18:27;;;;;;;11.63;7.07;;;9.00;99.90;;;;;;5081369;28;20442;-73
2020/12/14 10:20:53;;;;;;;14.50;7.47;;;8.80;99.90;;;;;;5080212;28;20555;-73
2020/12/14 10:23:18;;;;;;;10.43;7.33;;;8.60;99.90;;;;;;5082527;28;20186;-73
2020/12/14 10:25:44;;;;;;;9.70;7.50;;;8.60;99.90;;;;;;5081476;28;20261;-72
2020/12/14 10:28:09;;;;;;;11.30;8.47;;;8.60;99.90;;;;;;5079767;28;20213;-73
2020/12/14 10:30:37;;;;;;;7.80;6.30;;;8.50;99.90;;;;;;5079760;28;20336;-73
2020/12/14 10:33:03;;;;;;;8.90;7.70;;;8.60;99.90;;;;;;5084908;28;20218;-73
2020/12/14 10:35:29;;;;;;;11.30;6.80;;;8.50;99.90;;;;;;5080272;28;20426;-73
2020/12/14 10:37:55;;;;;;;13.80;7.40;;;8.50;99.90;;;;;;5082009;28;20424;-72
2020/12/14 10:40:22;;;;;;;9.03;6.90;;;8.40;99.90;;;;;;5078937;28;20195;-73
2020/12/14 10:42:47;;;;;;;8.80;6.87;;;8.40;99.90;;;;;;5079784;28;20444;-73
2020/12/14 10:45:13;;;;;;;9.47;7.17;;;8.50;99.90;;;;;;5081780;28;20446;-73
2020/12/14 10:47:39;;;;;;;8.43;6.37;;;8.50;99.90;;;;;;5080109;28;20294;-72
2020/12/14 10:50:06;;;;;;;8.60;6.43;;;8.50;99.90;;;;;;5080389;28;20186;-72
2020/12/14 10:52:32;;;;;;;10.27;7.07;;;8.40;99.90;;;;;;5078575;28;20465;-73
2020/12/14 10:54:57;;;;;;;11.07;6.77;;;8.50;99.90;;;;;;5078542;28;20539;-72
2020/12/14 10:57:23;;;;;;;11.33;7.60;;;8.40;99.90;;;;;;5080720;28;20182;-73
2020/12/14 10:59:48;;;;;;;9.40;6.90;;;8.40;99.90;;;;;;5085367;28;20190;-72
2020/12/14 11:02:14;;;;;;;6.57;5.97;;;8.40;99.90;;;;;;5082459;28;20177;-73
2020/12/14 11:04:40;;;;;;;8.40;6.63;;;8.50;99.90;;;;;;5081819;28;20826;-73
2020/12/14 11:07:09;;;;;;;6.90;5.70;;;8.50;99.90;;;;;;5084227;28;20212;-72
2020/12/14 11:09:37;;;;;;;8.13;6.43;;;8.50;99.90;;;;;;5085028;28;20192;-72
2020/12/14 11:12:06;;;;;;;7.50;6.00;;;8.50;99.90;;;;;;5084797;28;20432;-72
2020/12/14 11:14:32;;;;;;;8.60;7.00;;;8.50;99.90;;;;;;5085287;28;20440;-73
2020/12/14 11:16:58;;;;;;;7.77;6.47;;;8.50;99.90;;;;;;5088662;28;20456;-73
2020/12/14 11:19:24;;;;;;;6.57;5.87;;;8.40;99.90;;;;;;5084323;28;20519;-71
2020/12/14 11:21:54;;;;;;;9.00;6.70;;;8.50;99.90;;;;;;5081567;28;20463;-73
2020/12/14 11:24:20;;;;;;;7.97;6.33;;;8.50;99.90;;;;;;5082550;28;20593;-73
2020/12/14 11:26:46;;;;;;;7.90;6.23;;;8.50;99.90;;;;;;5084196;28;20535;-73
2020/12/14 11:29:15;;;;;;;6.13;5.53;;;8.60;99.90;;;;;;5084983;28;20461;-73
2020/12/14 11:31:42;;;;;;;8.33;6.30;;;8.70;99.90;;;;;;5086373;28;20429;-73
2020/12/14 11:34:07;;;;;;;8.40;5.90;;;8.70;99.90;;;;;;5083675;28;20449;-73
2020/12/14 11:36:33;;;;;;;12.77;6.47;;;8.70;99.90;;;;;;5083550;28;20431;-73
2020/12/14 11:38:59;;;;;;;13.03;6.40;;;8.70;99.90;;;;;;5085004;28;20190;-73
2020/12/14 11:41:25;;;;;;;11.43;6.87;;;8.70;99.90;;;;;;5082328;28;20202;-72
2020/12/14 11:43:51;;;;;;;10.57;7.67;;;8.70;99.90;;;;;;5085491;28;20548;-73
2020/12/14 11:46:16;;;;;;;11.70;7.43;;;8.70;99.90;;;;;;5082191;28;20425;-74
2020/12/14 11:48:42;;;;;;;13.50;8.30;;;8.90;99.90;;;;;;5084810;28;20224;-73
2020/12/14 11:51:08;;;;;;;11.87;7.70;;;9.00;99.90;;;;;;5083916;28;20244;-74
2020/12/14 11:53:33;;;;;;;10.13;6.63;;;9.10;99.90;;;;;;5084705;28;20193;-73
2020/12/14 11:55:59;;;;;;;12.80;7.83;;;9.10;99.90;;;;;;5084510;28;20765;-73
2020/12/14 11:58:24;;;;;;;9.17;7.33;;;9.00;99.90;;;;;;5082202;28;20226;-74
2020/12/14 12:00:50;;;;;;;9.00;7.63;;;9.00;99.90;;;;;;5083804;28;20700;-74
2020/12/14 12:03:15;;;;;;;8.70;6.60;;;9.00;99.90;;;;;;5080483;28;20275;-72
2020/12/14 12:05:41;;;;;;;7.93;7.00;;;9.00;99.90;;;;;;5084902;28;20668;-73
2020/12/14 12:08:06;;;;;;;8.53;6.73;;;9.10;99.90;;;;;;5083240;28;20207;-75
2020/12/14 12:10:33;;;;;;;7.60;6.37;;;9.20;99.90;;;;;;5084946;28;20282;-73
2020/12/14 12:12:58;;;;;;;9.93;7.40;;;9.30;99.90;;;;;;5083854;28;20211;-75
2020/12/14 12:15:24;;;;;;;11.00;7.07;;;9.40;99.90;;;;;;5085547;28;20434;-73
2020/12/14 12:17:49;;;;;;;10.70;7.57;;;9.50;99.90;;;;;;5085506;28;20270;-73
2020/12/14 12:20:15;;;;;;;8.33;6.70;;;9.60;99.90;;;;;;5083189;28;20192;-74
2020/12/14 12:22:40;;;;;;;10.30;7.07;;;9.60;99.90;;;;;;5081029;28;20188;-74
2020/12/14 12:25:06;;;;;;;18.83;9.40;;;9.70;99.90;;;;;;5083160;28;20214;-74
2020/12/14 12:27:32;;;;;;;16.20;8.50;;;9.70;99.90;;;;;;5083161;28;20212;-75
2020/12/14 12:29:57;;;;;;;12.00;7.57;;;9.70;99.90;;;;;;5081916;28;20166;-73
2020/12/14 12:32:23;;;;;;;12.43;8.63;;;9.70;99.90;;;;;;5081750;28;20190;-73
2020/12/14 12:34:48;;;;;;;10.33;7.20;;;9.70;99.90;;;;;;5082849;28;20189;-74
2020/12/14 12:37:14;;;;;;;18.30;7.80;;;9.60;99.90;;;;;;5082104;28;20206;-73
2020/12/14 12:39:39;;;;;;;14.00;9.13;;;9.60;99.90;;;;;;5080932;28;20185;-74
2020/12/14 12:42:05;;;;;;;17.67;8.73;;;9.60;99.90;;;;;;5088573;28;20196;-74
2020/12/14 12:44:31;;;;;;;9.87;8.43;;;9.70;99.90;;;;;;5081459;28;20604;-74
2020/12/14 12:46:57;;;;;;;15.83;8.07;;;9.70;99.90;;;;;;5081360;28;21178;-75
2020/12/14 12:49:22;;;;;;;14.27;8.10;;;9.70;99.90;;;;;;5083168;28;20241;-73
2020/12/14 12:51:52;;;;;;;8.63;7.63;;;9.80;99.90;;;;;;5085670;28;20198;-73
2020/12/14 12:54:18;;;;;;;8.20;6.70;;;9.80;99.90;;;;;;5078774;28;20189;-73
2020/12/14 12:56:44;;;;;;;8.90;7.07;;;9.90;99.90;;;;;;5082915;28;21119;-74